sensor_id;sensor_type;location;lat;lon;timestamp;pressure;altitude;pressure_sealevel;temperature;humidity
1371;BME280;14306;49.942;11.570;2023-06-22T00:00:40;97738.31;;;20.37;86.42
1371;BME280;14306;49.942;11.570;2023-06-22T00:03:09;97745.75;;;20.36;86.47
1371;BME280;14306;49.942;11.570;2023-06-22T00:05:37;97751.72;;;20.23;87.41
1371;BME280;14306;49.942;11.570;2023-06-22T00:08:05;97756.53;;;20.26;87.14
1371;BME280;14306;49.942;11.570;2023-06-22T00:10:36;97754.94;;;20.25;87.46
1371;BME280;14306;49.942;11.570;2023-06-22T00:13:04;97754.94;;;20.25;86.73
1371;BME280;14306;49.942;11.570;2023-06-22T00:15:33;97755.88;;;20.32;86.57
1371;BME280;14306;49.942;11.570;2023-06-22T00:18:01;97751.72;;;20.23;86.34
1371;BME280;14306;49.942;11.570;2023-06-22T00:20:30;97758.81;;;20.24;86.55
1371;BME280;14306;49.942;11.570;2023-06-22T00:22:59;97750.53;;;20.39;85.81
1371;BME280;14306;49.942;11.570;2023-06-22T00:25:28;97747.16;;;20.11;86.21
1371;BME280;14306;49.942;11.570;2023-06-22T00:27:57;97749.09;;;20.11;86.29
1371;BME280;14306;49.942;11.570;2023-06-22T00:30:26;97758.13;;;19.96;86.69
1371;BME280;14306;49.942;11.570;2023-06-22T00:32:54;97757.59;;;20.06;85.98
1371;BME280;14306;49.942;11.570;2023-06-22T00:35:22;97746.25;;;20.07;85.88
1371;BME280;14306;49.942;11.570;2023-06-22T00:37:56;97746.50;;;19.87;86.83
1371;BME280;14306;49.942;11.570;2023-06-22T00:40:29;97752.72;;;19.84;87.41
1371;BME280;14306;49.942;11.570;2023-06-22T00:42:59;97750.25;;;19.79;87.16
1371;BME280;14306;49.942;11.570;2023-06-22T00:45:27;97747.13;;;19.96;87.37
1371;BME280;14306;49.942;11.570;2023-06-22T00:47:57;97734.53;;;19.95;86.78
1371;BME280;14306;49.942;11.570;2023-06-22T00:50:28;97745.53;;;19.95;86.71
1371;BME280;14306;49.942;11.570;2023-06-22T00:53:03;97742.66;;;20.38;85.58
1371;BME280;14306;49.942;11.570;2023-06-22T00:55:37;97746.22;;;20.38;85.31
1371;BME280;14306;49.942;11.570;2023-06-22T00:58:07;97754.66;;;20.64;84.01
1371;BME280;14306;49.942;11.570;2023-06-22T01:00:38;97771.19;;;20.64;83.75
1371;BME280;14306;49.942;11.570;2023-06-22T01:03:07;97762.78;;;20.42;84.55
1371;BME280;14306;49.942;11.570;2023-06-22T01:05:37;97762.97;;;20.33;84.89
1371;BME280;14306;49.942;11.570;2023-06-22T01:08:12;97756.88;;;19.93;86.40
1371;BME280;14306;49.942;11.570;2023-06-22T01:10:47;97765.56;;;19.95;86.54
1371;BME280;14306;49.942;11.570;2023-06-22T01:13:27;97761.66;;;19.81;87.01
1371;BME280;14306;49.942;11.570;2023-06-22T01:16:02;97765.06;;;19.90;87.28
1371;BME280;14306;49.942;11.570;2023-06-22T01:18:31;97763.78;;;19.87;87.84
1371;BME280;14306;49.942;11.570;2023-06-22T01:21:04;97754.75;;;19.87;87.85
1371;BME280;14306;49.942;11.570;2023-06-22T01:23:46;97757.41;;;19.83;88.14
1371;BME280;14306;49.942;11.570;2023-06-22T01:26:20;97763.34;;;19.70;88.35
1371;BME280;14306;49.942;11.570;2023-06-22T01:28:53;97758.66;;;19.70;88.48
1371;BME280;14306;49.942;11.570;2023-06-22T01:31:23;97744.81;;;19.23;91.50
1371;BME280;14306;49.942;11.570;2023-06-22T01:33:55;97739.56;;;19.31;90.86
1371;BME280;14306;49.942;11.570;2023-06-22T01:36:25;97725.13;;;19.49;90.54
1371;BME280;14306;49.942;11.570;2023-06-22T01:38:54;97720.59;;;19.41;90.06
1371;BME280;14306;49.942;11.570;2023-06-22T01:41:25;97722.03;;;19.35;91.18
1371;BME280;14306;49.942;11.570;2023-06-22T01:43:56;97725.19;;;19.37;90.80
1371;BME280;14306;49.942;11.570;2023-06-22T01:46:25;97715.03;;;19.38;90.86
1371;BME280;14306;49.942;11.570;2023-06-22T01:48:53;97713.31;;;19.33;91.96
1371;BME280;14306;49.942;11.570;2023-06-22T01:51:21;97705.28;;;19.40;90.54
1371;BME280;14306;49.942;11.570;2023-06-22T01:53:50;97704.47;;;19.40;91.25
1371;BME280;14306;49.942;11.570;2023-06-22T01:56:19;97698.81;;;19.33;91.33
1371;BME280;14306;49.942;11.570;2023-06-22T01:58:52;97702.34;;;19.33;91.43
1371;BME280;14306;49.942;11.570;2023-06-22T02:01:32;97693.19;;;19.29;91.35
1371;BME280;14306;49.942;11.570;2023-06-22T02:04:06;97702.59;;;19.28;91.51
1371;BME280;14306;49.942;11.570;2023-06-22T02:06:39;97692.22;;;19.37;90.84
1371;BME280;14306;49.942;11.570;2023-06-22T02:09:12;97685.28;;;19.12;91.97
1371;BME280;14306;49.942;11.570;2023-06-22T02:11:44;97686.31;;;19.07;91.96
1371;BME280;14306;49.942;11.570;2023-06-22T02:14:13;97683.50;;;19.19;91.49
1371;BME280;14306;49.942;11.570;2023-06-22T02:16:47;97685.41;;;19.47;89.87
1371;BME280;14306;49.942;11.570;2023-06-22T02:19:15;97688.69;;;19.68;88.95
1371;BME280;14306;49.942;11.570;2023-06-22T02:21:45;97688.25;;;19.66;87.92
1371;BME280;14306;49.942;11.570;2023-06-22T02:24:13;97708.47;;;19.73;87.92
1371;BME280;14306;49.942;11.570;2023-06-22T02:26:42;97709.63;;;19.57;88.82
1371;BME280;14306;49.942;11.570;2023-06-22T02:29:12;97710.59;;;19.49;88.81
1371;BME280;14306;49.942;11.570;2023-06-22T02:31:40;97705.53;;;19.51;89.07
1371;BME280;14306;49.942;11.570;2023-06-22T02:34:10;97714.75;;;19.74;87.61
1371;BME280;14306;49.942;11.570;2023-06-22T02:36:45;97710.59;;;19.64;87.96
1371;BME280;14306;49.942;11.570;2023-06-22T02:39:22;97706.19;;;19.60;87.80
1371;BME280;14306;49.942;11.570;2023-06-22T02:41:51;97706.34;;;19.51;88.11
1371;BME280;14306;49.942;11.570;2023-06-22T02:44:20;97707.59;;;19.38;89.29
1371;BME280;14306;49.942;11.570;2023-06-22T02:46:49;97713.00;;;19.50;87.72
1371;BME280;14306;49.942;11.570;2023-06-22T02:49:19;97716.34;;;19.44;88.48
1371;BME280;14306;49.942;11.570;2023-06-22T02:51:47;97711.53;;;19.25;89.31
1371;BME280;14306;49.942;11.570;2023-06-22T02:54:16;97716.56;;;19.23;89.29
1371;BME280;14306;49.942;11.570;2023-06-22T02:56:45;97721.94;;;19.19;89.66
1371;BME280;14306;49.942;11.570;2023-06-22T02:59:13;97716.53;;;19.07;89.97
1371;BME280;14306;49.942;11.570;2023-06-22T03:01:41;97710.59;;;19.05;90.20
1371;BME280;14306;49.942;11.570;2023-06-22T03:04:09;97727.16;;;19.09;89.81
1371;BME280;14306;49.942;11.570;2023-06-22T03:06:39;97736.38;;;19.16;89.15
1371;BME280;14306;49.942;11.570;2023-06-22T03:09:07;97744.19;;;19.58;87.86
1371;BME280;14306;49.942;11.570;2023-06-22T03:11:35;97760.78;;;19.77;87.20
1371;BME280;14306;49.942;11.570;2023-06-22T03:14:03;97803.06;;;20.50;83.96
1371;BME280;14306;49.942;11.570;2023-06-22T03:16:31;97876.41;;;20.73;82.63
1371;BME280;14306;49.942;11.570;2023-06-22T03:19:00;97924.34;;;21.03;80.45
1371;BME280;14306;49.942;11.570;2023-06-22T03:21:29;97950.50;;;21.28;79.36
1371;BME280;14306;49.942;11.570;2023-06-22T03:24:00;97949.28;;;21.45;78.54
1371;BME280;14306;49.942;11.570;2023-06-22T03:26:28;97930.13;;;20.98;80.51
1371;BME280;14306;49.942;11.570;2023-06-22T03:28:56;97924.72;;;20.55;82.73
1371;BME280;14306;49.942;11.570;2023-06-22T03:31:24;97888.69;;;20.14;86.48
1371;BME280;14306;49.942;11.570;2023-06-22T03:33:52;97829.78;;;19.16;91.40
1371;BME280;14306;49.942;11.570;2023-06-22T03:36:20;97838.38;;;19.86;89.28
1371;BME280;14306;49.942;11.570;2023-06-22T03:38:49;97849.34;;;19.98;88.85
1371;BME280;14306;49.942;11.570;2023-06-22T03:41:19;97844.56;;;19.52;91.86
1371;BME280;14306;49.942;11.570;2023-06-22T03:43:47;97852.41;;;19.81;91.09
1371;BME280;14306;49.942;11.570;2023-06-22T03:46:15;97848.91;;;19.68;91.67
1371;BME280;14306;49.942;11.570;2023-06-22T03:48:43;97863.56;;;20.15;90.51
1371;BME280;14306;49.942;11.570;2023-06-22T03:51:11;97856.03;;;20.12;90.01
1371;BME280;14306;49.942;11.570;2023-06-22T03:53:39;97848.84;;;20.23;89.63
1371;BME280;14306;49.942;11.570;2023-06-22T03:56:07;97853.25;;;20.28;89.37
1371;BME280;14306;49.942;11.570;2023-06-22T03:58:37;97860.81;;;20.15;89.66
1371;BME280;14306;49.942;11.570;2023-06-22T04:01:10;97861.03;;;19.95;90.79
1371;BME280;14306;49.942;11.570;2023-06-22T04:03:38;97843.88;;;19.70;91.85
1371;BME280;14306;49.942;11.570;2023-06-22T04:06:07;97852.31;;;19.93;91.38
1371;BME280;14306;49.942;11.570;2023-06-22T04:08:35;97855.53;;;19.95;91.75
1371;BME280;14306;49.942;11.570;2023-06-22T04:11:03;97839.34;;;19.78;92.05
1371;BME280;14306;49.942;11.570;2023-06-22T04:13:32;97834.78;;;19.97;92.44
1371;BME280;14306;49.942;11.570;2023-06-22T04:16:02;97828.09;;;19.98;92.63
1371;BME280;14306;49.942;11.570;2023-06-22T04:18:31;97808.91;;;20.14;91.45
1371;BME280;14306;49.942;11.570;2023-06-22T04:20:59;97806.56;;;20.31;91.67
1371;BME280;14306;49.942;11.570;2023-06-22T04:23:28;97799.66;;;20.72;89.50
1371;BME280;14306;49.942;11.570;2023-06-22T04:25:56;97797.03;;;21.32;90.13
1371;BME280;14306;49.942;11.570;2023-06-22T04:28:24;97789.47;;;21.90;84.90
1371;BME280;14306;49.942;11.570;2023-06-22T04:30:54;97781.94;;;22.35;82.53
1371;BME280;14306;49.942;11.570;2023-06-22T04:33:31;97779.28;;;23.24;79.93
1371;BME280;14306;49.942;11.570;2023-06-22T04:36:00;97761.41;;;23.51;79.74
1371;BME280;14306;49.942;11.570;2023-06-22T04:38:29;97757.84;;;23.91;76.68
1371;BME280;14306;49.942;11.570;2023-06-22T04:41:00;97741.31;;;25.20;70.93
1371;BME280;14306;49.942;11.570;2023-06-22T04:43:30;97733.84;;;25.31;68.76
1371;BME280;14306;49.942;11.570;2023-06-22T04:45:58;97733.47;;;25.50;68.35
1371;BME280;14306;49.942;11.570;2023-06-22T04:48:32;97724.06;;;26.07;69.40
1371;BME280;14306;49.942;11.570;2023-06-22T04:51:01;97710.16;;;25.79;66.78
1371;BME280;14306;49.942;11.570;2023-06-22T04:53:31;97691.72;;;25.08;70.26
1371;BME280;14306;49.942;11.570;2023-06-22T04:55:59;97674.84;;;25.69;66.77
1371;BME280;14306;49.942;11.570;2023-06-22T04:58:31;97683.53;;;25.50;66.99
1371;BME280;14306;49.942;11.570;2023-06-22T05:01:00;97681.19;;;25.94;65.90
1371;BME280;14306;49.942;11.570;2023-06-22T05:03:31;97682.16;;;28.21;58.76
1371;BME280;14306;49.942;11.570;2023-06-22T05:06:00;97676.84;;;29.91;53.25
1371;BME280;14306;49.942;11.570;2023-06-22T05:08:29;97690.69;;;31.45;48.88
1371;BME280;14306;49.942;11.570;2023-06-22T05:10:57;97696.81;;;32.08;45.01
1371;BME280;14306;49.942;11.570;2023-06-22T05:13:32;97732.59;;;33.91;41.27
1371;BME280;14306;49.942;11.570;2023-06-22T05:16:00;97711.22;;;32.87;42.07
1371;BME280;14306;49.942;11.570;2023-06-22T05:18:32;97705.47;;;32.62;42.82
1371;BME280;14306;49.942;11.570;2023-06-22T05:21:02;97731.50;;;33.89;40.50
1371;BME280;14306;49.942;11.570;2023-06-22T05:23:33;97728.09;;;33.94;40.23
1371;BME280;14306;49.942;11.570;2023-06-22T05:26:02;97741.50;;;35.08;37.35
1371;BME280;14306;49.942;11.570;2023-06-22T05:28:33;97721.91;;;34.36;38.53
1371;BME280;14306;49.942;11.570;2023-06-22T05:31:03;97711.13;;;33.97;39.22
1371;BME280;14306;49.942;11.570;2023-06-22T05:33:34;97694.34;;;33.94;39.04
1371;BME280;14306;49.942;11.570;2023-06-22T05:36:04;97711.66;;;34.05;39.21
1371;BME280;14306;49.942;11.570;2023-06-22T05:38:34;97703.72;;;33.91;39.25
1371;BME280;14306;49.942;11.570;2023-06-22T05:41:03;97701.91;;;33.84;39.58
1371;BME280;14306;49.942;11.570;2023-06-22T05:43:33;97719.34;;;34.63;37.84
1371;BME280;14306;49.942;11.570;2023-06-22T05:46:04;97722.19;;;34.97;37.52
1371;BME280;14306;49.942;11.570;2023-06-22T05:48:35;97744.91;;;35.37;36.40
1371;BME280;14306;49.942;11.570;2023-06-22T05:51:05;97759.38;;;36.40;34.68
1371;BME280;14306;49.942;11.570;2023-06-22T05:53:35;97772.22;;;36.98;34.19
1371;BME280;14306;49.942;11.570;2023-06-22T05:56:06;97790.69;;;38.07;32.19
1371;BME280;14306;49.942;11.570;2023-06-22T05:58:35;97798.75;;;38.32;31.25
1371;BME280;14306;49.942;11.570;2023-06-22T06:01:05;97780.16;;;37.90;32.47
1371;BME280;14306;49.942;11.570;2023-06-22T06:03:38;97798.69;;;38.18;31.83
1371;BME280;14306;49.942;11.570;2023-06-22T06:06:11;97754.00;;;36.81;32.73
1371;BME280;14306;49.942;11.570;2023-06-22T06:08:40;97778.53;;;37.29;32.39
1371;BME280;14306;49.942;11.570;2023-06-22T06:11:10;97778.22;;;37.36;32.10
1371;BME280;14306;49.942;11.570;2023-06-22T06:13:39;97787.59;;;37.78;31.07
1371;BME280;14306;49.942;11.570;2023-06-22T06:16:10;97742.38;;;35.82;33.75
1371;BME280;14306;49.942;11.570;2023-06-22T06:18:40;97771.09;;;36.78;31.66
1371;BME280;14306;49.942;11.570;2023-06-22T06:21:08;97781.34;;;37.38;30.89
1371;BME280;14306;49.942;11.570;2023-06-22T06:23:38;97750.50;;;36.20;32.12
1371;BME280;14306;49.942;11.570;2023-06-22T06:26:07;97751.03;;;35.88;33.30
1371;BME280;14306;49.942;11.570;2023-06-22T06:28:36;97727.06;;;35.18;33.47
1371;BME280;14306;49.942;11.570;2023-06-22T06:31:05;97778.47;;;36.84;31.38
1371;BME280;14306;49.942;11.570;2023-06-22T06:33:37;97821.91;;;38.73;28.83
1371;BME280;14306;49.942;11.570;2023-06-22T06:36:08;97806.25;;;38.12;29.91
1371;BME280;14306;49.942;11.570;2023-06-22T06:38:37;97710.66;;;34.70;34.25
1371;BME280;14306;49.942;11.570;2023-06-22T06:41:06;97753.16;;;36.54;32.19
1371;BME280;14306;49.942;11.570;2023-06-22T06:43:34;97723.97;;;35.47;33.38
1371;BME280;14306;49.942;11.570;2023-06-22T06:46:04;97771.31;;;37.19;31.30
1371;BME280;14306;49.942;11.570;2023-06-22T06:48:33;97784.63;;;37.73;30.18
1371;BME280;14306;49.942;11.570;2023-06-22T06:51:01;97771.44;;;36.98;31.47
1371;BME280;14306;49.942;11.570;2023-06-22T06:53:31;97787.56;;;37.87;29.87
1371;BME280;14306;49.942;11.570;2023-06-22T06:56:00;97753.56;;;36.34;32.08
1371;BME280;14306;49.942;11.570;2023-06-22T06:58:31;97815.53;;;39.10;28.54
1371;BME280;14306;49.942;11.570;2023-06-22T07:01:01;97876.69;;;41.43;25.65
1371;BME280;14306;49.942;11.570;2023-06-22T07:03:33;97823.09;;;39.28;27.99
1371;BME280;14306;49.942;11.570;2023-06-22T07:06:05;97762.16;;;37.06;30.68
1371;BME280;14306;49.942;11.570;2023-06-22T07:08:36;97763.44;;;37.41;30.64
1371;BME280;14306;49.942;11.570;2023-06-22T07:11:07;97795.47;;;38.90;28.56
1371;BME280;14306;49.942;11.570;2023-06-22T07:13:36;97795.88;;;38.74;28.89
1371;BME280;14306;49.942;11.570;2023-06-22T07:16:06;97841.91;;;40.99;26.08
1371;BME280;14306;49.942;11.570;2023-06-22T07:18:39;97819.34;;;40.12;27.24
1371;BME280;14306;49.942;11.570;2023-06-22T07:21:09;97789.09;;;39.04;27.95
1371;BME280;14306;49.942;11.570;2023-06-22T07:23:38;97744.59;;;37.29;29.24
1371;BME280;14306;49.942;11.570;2023-06-22T07:26:08;97753.31;;;37.85;29.02
1371;BME280;14306;49.942;11.570;2023-06-22T07:28:40;97715.94;;;36.37;30.94
1371;BME280;14306;49.942;11.570;2023-06-22T07:31:09;97702.91;;;35.61;32.25
1371;BME280;14306;49.942;11.570;2023-06-22T07:33:39;97757.13;;;37.64;29.72
1371;BME280;14306;49.942;11.570;2023-06-22T07:36:08;97679.66;;;35.26;33.14
1371;BME280;14306;49.942;11.570;2023-06-22T07:38:38;97689.69;;;34.84;33.33
1371;BME280;14306;49.942;11.570;2023-06-22T07:41:07;97643.72;;;33.94;35.19
1371;BME280;14306;49.942;11.570;2023-06-22T07:43:36;97648.34;;;34.00;35.03
1371;BME280;14306;49.942;11.570;2023-06-22T07:46:04;97659.97;;;34.24;35.12
1371;BME280;14306;49.942;11.570;2023-06-22T07:48:33;97647.69;;;33.96;35.27
1371;BME280;14306;49.942;11.570;2023-06-22T07:51:05;97663.91;;;34.39;34.99
1371;BME280;14306;49.942;11.570;2023-06-22T07:53:35;97688.03;;;35.69;32.58
1371;BME280;14306;49.942;11.570;2023-06-22T07:56:05;97706.81;;;36.24;31.78
1371;BME280;14306;49.942;11.570;2023-06-22T07:58:37;97714.81;;;36.35;31.74
1371;BME280;14306;49.942;11.570;2023-06-22T08:01:08;97728.41;;;37.12;30.36
1371;BME280;14306;49.942;11.570;2023-06-22T08:03:38;97710.66;;;36.75;31.20
1371;BME280;14306;49.942;11.570;2023-06-22T08:06:08;97685.50;;;35.84;32.56
1371;BME280;14306;49.942;11.570;2023-06-22T08:08:39;97671.59;;;35.37;33.24
1371;BME280;14306;49.942;11.570;2023-06-22T08:11:14;97727.47;;;36.97;31.11
1371;BME280;14306;49.942;11.570;2023-06-22T08:13:44;97739.78;;;37.80;29.94
1371;BME280;14306;49.942;11.570;2023-06-22T08:16:13;97748.34;;;38.04;29.92
1371;BME280;14306;49.942;11.570;2023-06-22T08:18:42;97750.06;;;38.10;29.54
1371;BME280;14306;49.942;11.570;2023-06-22T08:21:11;97715.69;;;36.98;30.93
1371;BME280;14306;49.942;11.570;2023-06-22T08:23:40;97709.69;;;36.60;31.20
1371;BME280;14306;49.942;11.570;2023-06-22T08:26:09;97740.44;;;37.84;30.21
1371;BME280;14306;49.942;11.570;2023-06-22T08:28:39;97812.97;;;40.32;27.24
1371;BME280;14306;49.942;11.570;2023-06-22T08:31:08;97842.19;;;41.56;25.62
1371;BME280;14306;49.942;11.570;2023-06-22T08:33:41;97799.25;;;40.16;26.81
1371;BME280;14306;49.942;11.570;2023-06-22T08:36:16;97739.34;;;37.73;29.93
1371;BME280;14306;49.942;11.570;2023-06-22T08:38:47;97762.50;;;38.78;28.82
1371;BME280;14306;49.942;11.570;2023-06-22T08:41:18;97752.44;;;38.44;29.32
1371;BME280;14306;49.942;11.570;2023-06-22T08:43:49;97776.91;;;39.51;27.93
1371;BME280;14306;49.942;11.570;2023-06-22T08:46:19;97767.69;;;39.18;28.29
1371;BME280;14306;49.942;11.570;2023-06-22T08:48:52;97770.59;;;39.32;27.49
1371;BME280;14306;49.942;11.570;2023-06-22T08:51:21;97761.91;;;39.50;27.44
1371;BME280;14306;49.942;11.570;2023-06-22T08:53:51;97764.53;;;39.39;27.47
1371;BME280;14306;49.942;11.570;2023-06-22T08:56:20;97743.44;;;39.02;27.47
1371;BME280;14306;49.942;11.570;2023-06-22T08:58:50;97670.38;;;36.17;31.59
1371;BME280;14306;49.942;11.570;2023-06-22T09:01:19;97681.75;;;36.53;30.19
1371;BME280;14306;49.942;11.570;2023-06-22T09:03:48;97658.53;;;35.61;31.64
1371;BME280;14306;49.942;11.570;2023-06-22T09:06:25;97675.16;;;36.47;30.12
1371;BME280;14306;49.942;11.570;2023-06-22T09:08:53;97671.53;;;36.47;30.59
1371;BME280;14306;49.942;11.570;2023-06-22T09:11:21;97679.13;;;36.77;29.90
1371;BME280;14306;49.942;11.570;2023-06-22T09:13:51;97685.53;;;37.22;29.63
1371;BME280;14306;49.942;11.570;2023-06-22T09:16:21;97752.22;;;40.00;26.07
1371;BME280;14306;49.942;11.570;2023-06-22T09:18:50;97692.41;;;37.90;27.30
1371;BME280;14306;49.942;11.570;2023-06-22T09:21:19;97718.03;;;38.84;26.41
1371;BME280;14306;49.942;11.570;2023-06-22T09:23:51;97746.75;;;40.26;24.61
1371;BME280;14306;49.942;11.570;2023-06-22T09:26:20;97683.44;;;37.91;27.47
1371;BME280;14306;49.942;11.570;2023-06-22T09:28:51;97690.72;;;38.25;26.74
1371;BME280;14306;49.942;11.570;2023-06-22T09:31:20;97691.06;;;38.18;27.67
1371;BME280;14306;49.942;11.570;2023-06-22T09:33:53;97761.69;;;40.75;24.93
1371;BME280;14306;49.942;11.570;2023-06-22T09:36:22;97706.09;;;39.04;26.53
1371;BME280;14306;49.942;11.570;2023-06-22T09:38:51;97657.25;;;37.31;28.66
1371;BME280;14306;49.942;11.570;2023-06-22T09:41:25;97690.41;;;38.46;27.43
1371;BME280;14306;49.942;11.570;2023-06-22T09:43:56;97663.19;;;37.42;28.86
1371;BME280;14306;49.942;11.570;2023-06-22T09:46:25;97680.75;;;38.06;27.65
1371;BME280;14306;49.942;11.570;2023-06-22T09:48:55;97639.41;;;36.71;29.06
1371;BME280;14306;49.942;11.570;2023-06-22T09:51:24;97660.78;;;37.68;28.57
1371;BME280;14306;49.942;11.570;2023-06-22T09:53:52;97717.97;;;40.04;25.59
1371;BME280;14306;49.942;11.570;2023-06-22T09:56:21;97759.50;;;41.25;24.40
1371;BME280;14306;49.942;11.570;2023-06-22T09:58:49;97772.47;;;41.77;23.60
1371;BME280;14306;49.942;11.570;2023-06-22T10:01:24;97701.53;;;39.35;26.10
1371;BME280;14306;49.942;11.570;2023-06-22T10:03:53;97697.19;;;39.11;26.60
1371;BME280;14306;49.942;11.570;2023-06-22T10:06:23;97765.72;;;41.75;22.93
1371;BME280;14306;49.942;11.570;2023-06-22T10:08:52;97670.94;;;38.39;26.68
1371;BME280;14306;49.942;11.570;2023-06-22T10:11:21;97735.34;;;40.60;24.42
1371;BME280;14306;49.942;11.570;2023-06-22T10:13:54;97751.72;;;41.25;24.30
1371;BME280;14306;49.942;11.570;2023-06-22T10:16:30;97676.88;;;38.50;27.38
1371;BME280;14306;49.942;11.570;2023-06-22T10:18:59;97657.31;;;38.05;28.09
1371;BME280;14306;49.942;11.570;2023-06-22T10:21:28;97644.53;;;37.77;28.00
1371;BME280;14306;49.942;11.570;2023-06-22T10:23:56;97628.66;;;37.29;29.54
1371;BME280;14306;49.942;11.570;2023-06-22T10:26:26;97698.09;;;40.04;26.34
1371;BME280;14306;49.942;11.570;2023-06-22T10:28:55;97645.81;;;37.67;28.36
1371;BME280;14306;49.942;11.570;2023-06-22T10:31:43;97661.47;;;38.42;27.70
1371;BME280;14306;49.942;11.570;2023-06-22T10:34:14;97645.22;;;37.63;28.38
1371;BME280;14306;49.942;11.570;2023-06-22T10:36:42;97652.25;;;38.09;27.73
1371;BME280;14306;49.942;11.570;2023-06-22T10:39:13;97645.69;;;37.94;27.88
1371;BME280;14306;49.942;11.570;2023-06-22T10:41:42;97610.16;;;36.20;29.76
1371;BME280;14306;49.942;11.570;2023-06-22T10:44:11;97635.31;;;37.91;27.34
1371;BME280;14306;49.942;11.570;2023-06-22T10:46:41;97618.78;;;37.16;29.13
1371;BME280;14306;49.942;11.570;2023-06-22T10:49:11;97610.66;;;36.82;28.69
1371;BME280;14306;49.942;11.570;2023-06-22T10:51:39;97666.75;;;38.97;26.94
1371;BME280;14306;49.942;11.570;2023-06-22T10:54:09;97616.88;;;37.13;28.62
1371;BME280;14306;49.942;11.570;2023-06-22T10:56:38;97614.69;;;37.67;27.95
1371;BME280;14306;49.942;11.570;2023-06-22T10:59:07;97604.66;;;37.57;28.21
1371;BME280;14306;49.942;11.570;2023-06-22T11:01:36;97600.75;;;37.64;28.14
1371;BME280;14306;49.942;11.570;2023-06-22T11:04:07;97642.03;;;39.12;26.79
1371;BME280;14306;49.942;11.570;2023-06-22T11:06:38;97654.25;;;39.61;25.71
1371;BME280;14306;49.942;11.570;2023-06-22T11:09:08;97598.91;;;37.43;28.12
1371;BME280;14306;49.942;11.570;2023-06-22T11:11:52;97581.94;;;36.83;28.42
1371;BME280;14306;49.942;11.570;2023-06-22T11:14:22;97591.28;;;37.25;27.30
1371;BME280;14306;49.942;11.570;2023-06-22T11:16:50;97597.31;;;37.60;27.49
1371;BME280;14306;49.942;11.570;2023-06-22T11:19:19;97577.09;;;36.57;28.32
1371;BME280;14306;49.942;11.570;2023-06-22T11:21:50;97595.06;;;37.22;27.61
1371;BME280;14306;49.942;11.570;2023-06-22T11:24:18;97610.38;;;38.13;26.71
1371;BME280;14306;49.942;11.570;2023-06-22T11:26:46;97616.75;;;38.46;26.66
1371;BME280;14306;49.942;11.570;2023-06-22T11:29:15;97569.84;;;36.56;26.46
1371;BME280;14306;49.942;11.570;2023-06-22T11:31:58;97585.16;;;37.27;26.81
1371;BME280;14306;49.942;11.570;2023-06-22T11:34:26;97581.25;;;37.15;27.38
1371;BME280;14306;49.942;11.570;2023-06-22T11:36:56;97600.72;;;38.20;26.03
1371;BME280;14306;49.942;11.570;2023-06-22T11:39:24;97615.53;;;39.15;24.91
1371;BME280;14306;49.942;11.570;2023-06-22T11:42:08;97576.44;;;38.28;25.40
1371;BME280;14306;49.942;11.570;2023-06-22T11:44:37;97568.81;;;37.63;26.82
1371;BME280;14306;49.942;11.570;2023-06-22T11:47:06;97579.16;;;38.22;26.21
1371;BME280;14306;49.942;11.570;2023-06-22T11:49:34;97579.75;;;38.64;26.61
1371;BME280;14306;49.942;11.570;2023-06-22T11:52:04;97538.22;;;37.20;27.82
1371;BME280;14306;49.942;11.570;2023-06-22T11:54:33;97548.91;;;37.81;27.06
1371;BME280;14306;49.942;11.570;2023-06-22T11:57:02;97527.88;;;37.08;27.75
1371;BME280;14306;49.942;11.570;2023-06-22T11:59:30;97550.91;;;38.13;26.89
1371;BME280;14306;49.942;11.570;2023-06-22T12:01:59;97535.66;;;37.64;26.98
1371;BME280;14306;49.942;11.570;2023-06-22T12:04:27;97525.97;;;37.47;27.09
1371;BME280;14306;49.942;11.570;2023-06-22T12:06:55;97523.56;;;37.63;26.99
1371;BME280;14306;49.942;11.570;2023-06-22T12:09:27;97513.94;;;37.37;27.95
1371;BME280;14306;49.942;11.570;2023-06-22T12:11:55;97507.34;;;36.99;28.19
1371;BME280;14306;49.942;11.570;2023-06-22T12:14:25;97498.47;;;37.06;28.06
1371;BME280;14306;49.942;11.570;2023-06-22T12:16:56;97467.75;;;35.76;28.50
1371;BME280;14306;49.942;11.570;2023-06-22T12:19:24;97505.63;;;37.34;27.39
1371;BME280;14306;49.942;11.570;2023-06-22T12:21:52;97516.94;;;37.66;26.44
1371;BME280;14306;49.942;11.570;2023-06-22T12:24:20;97548.78;;;38.76;25.25
1371;BME280;14306;49.942;11.570;2023-06-22T12:26:50;97542.38;;;38.75;25.30
1371;BME280;14306;49.942;11.570;2023-06-22T12:29:22;97545.50;;;39.21;25.14
1371;BME280;14306;49.942;11.570;2023-06-22T12:31:51;97483.13;;;37.07;27.45
1371;BME280;14306;49.942;11.570;2023-06-22T12:34:19;97462.91;;;36.04;28.61
1371;BME280;14306;49.942;11.570;2023-06-22T12:36:47;97489.28;;;36.96;28.03
1371;BME280;14306;49.942;11.570;2023-06-22T12:39:16;97464.94;;;36.03;28.93
1371;BME280;14306;49.942;11.570;2023-06-22T12:41:44;97459.75;;;36.20;28.52
1371;BME280;14306;49.942;11.570;2023-06-22T12:44:14;97468.00;;;36.77;27.96
1371;BME280;14306;49.942;11.570;2023-06-22T12:46:42;97460.47;;;36.74;28.39
1371;BME280;14306;49.942;11.570;2023-06-22T12:49:10;97471.72;;;37.25;27.87
1371;BME280;14306;49.942;11.570;2023-06-22T12:51:40;97463.63;;;37.18;27.85
1371;BME280;14306;49.942;11.570;2023-06-22T12:54:10;97485.69;;;38.22;26.38
1371;BME280;14306;49.942;11.570;2023-06-22T12:56:38;97469.31;;;37.88;27.46
1371;BME280;14306;49.942;11.570;2023-06-22T12:59:07;97445.16;;;36.99;26.93
1371;BME280;14306;49.942;11.570;2023-06-22T13:01:37;97432.69;;;36.73;27.57
1371;BME280;14306;49.942;11.570;2023-06-22T13:04:05;97427.34;;;36.75;28.47
1371;BME280;14306;49.942;11.570;2023-06-22T13:06:34;97427.72;;;37.00;27.69
1371;BME280;14306;49.942;11.570;2023-06-22T13:09:02;97458.47;;;38.25;26.85
1371;BME280;14306;49.942;11.570;2023-06-22T13:11:35;97439.28;;;37.67;27.14
1371;BME280;14306;49.942;11.570;2023-06-22T13:14:03;97417.63;;;36.76;28.29